FEBRUARY 22, 2017

 

METAR SMJP 221900Z 16006KT 9999 FEW018 FEW020CB SCT035 31/23 Q1008 TEMPO -TSRA=

METAR SMZO 221900Z 06006KT 3000 +TSRA FEW012 SCT015CB BKN025 24/23 Q1008 BECMG AT2000 7000 -SHRA=

METAR SMNI 221900Z 09008KT 9999 VCSH FEW015CB SCT018 28/25 Q1008=